sensor_id;sensor_type;location;lat;lon;timestamp;P1;durP1;ratioP1;P2;durP2;ratioP2
21798;SDS011;24973;47.178;15.316;2023-05-10T00:02:05;6.73;;;4.10;;
21798;SDS011;24973;47.178;15.316;2023-05-10T00:04:54;8.53;;;3.43;;
21798;SDS011;24973;47.178;15.316;2023-05-10T00:07:43;4.63;;;3.77;;
21798;SDS011;24973;47.178;15.316;2023-05-10T00:10:33;5.87;;;3.57;;
21798;SDS011;24973;47.178;15.316;2023-05-10T00:13:23;3.53;;;3.23;;
21798;SDS011;24973;47.178;15.316;2023-05-10T00:16:12;8.17;;;3.27;;
21798;SDS011;24973;47.178;15.316;2023-05-10T00:19:01;5.10;;;3.53;;
21798;SDS011;24973;47.178;15.316;2023-05-10T00:21:50;5.00;;;3.63;;
21798;SDS011;24973;47.178;15.316;2023-05-10T00:24:39;5.73;;;3.97;;
21798;SDS011;24973;47.178;15.316;2023-05-10T00:27:30;4.70;;;3.87;;
21798;SDS011;24973;47.178;15.316;2023-05-10T00:30:19;3.37;;;3.00;;
21798;SDS011;24973;47.178;15.316;2023-05-10T00:33:08;4.53;;;3.50;;
21798;SDS011;24973;47.178;15.316;2023-05-10T00:35:58;3.63;;;3.33;;
21798;SDS011;24973;47.178;15.316;2023-05-10T00:38:47;4.67;;;4.17;;
21798;SDS011;24973;47.178;15.316;2023-05-10T00:41:36;5.20;;;4.20;;
21798;SDS011;24973;47.178;15.316;2023-05-10T00:44:26;4.90;;;3.37;;
21798;SDS011;24973;47.178;15.316;2023-05-10T00:47:15;6.67;;;3.93;;
21798;SDS011;24973;47.178;15.316;2023-05-10T00:50:04;6.67;;;4.27;;
21798;SDS011;24973;47.178;15.316;2023-05-10T00:52:55;4.70;;;4.27;;
21798;SDS011;24973;47.178;15.316;2023-05-10T00:55:44;8.13;;;4.20;;
21798;SDS011;24973;47.178;15.316;2023-05-10T00:58:33;3.53;;;3.23;;
21798;SDS011;24973;47.178;15.316;2023-05-10T01:01:23;4.17;;;3.60;;
21798;SDS011;24973;47.178;15.316;2023-05-10T01:04:14;5.60;;;4.87;;
21798;SDS011;24973;47.178;15.316;2023-05-10T01:07:03;5.50;;;4.33;;
21798;SDS011;24973;47.178;15.316;2023-05-10T01:09:52;5.43;;;4.23;;
21798;SDS011;24973;47.178;15.316;2023-05-10T01:12:43;4.70;;;3.77;;
21798;SDS011;24973;47.178;15.316;2023-05-10T01:15:33;4.80;;;4.37;;
21798;SDS011;24973;47.178;15.316;2023-05-10T01:18:23;5.13;;;4.60;;
21798;SDS011;24973;47.178;15.316;2023-05-10T01:21:17;5.30;;;4.20;;
21798;SDS011;24973;47.178;15.316;2023-05-10T01:24:17;11.13;;;4.30;;
21798;SDS011;24973;47.178;15.316;2023-05-10T01:27:25;5.33;;;4.73;;
21798;SDS011;24973;47.178;15.316;2023-05-10T01:33:57;6.60;;;4.33;;
21798;SDS011;24973;47.178;15.316;2023-05-10T01:36:51;6.93;;;4.70;;
21798;SDS011;24973;47.178;15.316;2023-05-10T01:39:43;4.33;;;3.93;;
21798;SDS011;24973;47.178;15.316;2023-05-10T01:42:36;6.43;;;3.80;;
21798;SDS011;24973;47.178;15.316;2023-05-10T01:45:29;5.40;;;3.83;;
21798;SDS011;24973;47.178;15.316;2023-05-10T01:48:19;8.30;;;5.50;;
21798;SDS011;24973;47.178;15.316;2023-05-10T01:51:10;5.07;;;4.03;;
21798;SDS011;24973;47.178;15.316;2023-05-10T01:54:00;5.27;;;4.37;;
21798;SDS011;24973;47.178;15.316;2023-05-10T01:56:52;4.00;;;3.60;;
21798;SDS011;24973;47.178;15.316;2023-05-10T01:59:45;4.07;;;3.63;;
21798;SDS011;24973;47.178;15.316;2023-05-10T02:02:38;6.10;;;3.87;;
21798;SDS011;24973;47.178;15.316;2023-05-10T02:05:29;6.17;;;3.43;;
21798;SDS011;24973;47.178;15.316;2023-05-10T02:08:20;4.10;;;3.67;;
21798;SDS011;24973;47.178;15.316;2023-05-10T02:11:10;6.07;;;4.27;;
21798;SDS011;24973;47.178;15.316;2023-05-10T02:14:01;7.70;;;4.37;;
21798;SDS011;24973;47.178;15.316;2023-05-10T02:16:50;5.83;;;4.13;;
21798;SDS011;24973;47.178;15.316;2023-05-10T02:19:40;5.20;;;4.43;;
21798;SDS011;24973;47.178;15.316;2023-05-10T02:22:30;3.60;;;3.30;;
21798;SDS011;24973;47.178;15.316;2023-05-10T02:25:21;3.90;;;3.20;;
21798;SDS011;24973;47.178;15.316;2023-05-10T02:28:12;3.57;;;3.27;;
21798;SDS011;24973;47.178;15.316;2023-05-10T02:31:03;5.13;;;4.33;;
21798;SDS011;24973;47.178;15.316;2023-05-10T02:33:52;6.33;;;4.73;;
21798;SDS011;24973;47.178;15.316;2023-05-10T02:36:42;6.47;;;3.73;;
21798;SDS011;24973;47.178;15.316;2023-05-10T02:39:31;3.77;;;3.37;;
21798;SDS011;24973;47.178;15.316;2023-05-10T02:42:23;4.90;;;4.40;;
21798;SDS011;24973;47.178;15.316;2023-05-10T02:45:14;4.13;;;3.50;;
21798;SDS011;24973;47.178;15.316;2023-05-10T02:48:06;4.20;;;3.80;;
21798;SDS011;24973;47.178;15.316;2023-05-10T02:50:55;5.07;;;4.23;;
21798;SDS011;24973;47.178;15.316;2023-05-10T02:53:47;6.70;;;3.47;;
21798;SDS011;24973;47.178;15.316;2023-05-10T02:56:39;4.67;;;3.73;;
21798;SDS011;24973;47.178;15.316;2023-05-10T02:59:31;5.13;;;3.77;;
21798;SDS011;24973;47.178;15.316;2023-05-10T03:02:20;4.93;;;4.20;;
21798;SDS011;24973;47.178;15.316;2023-05-10T03:05:10;4.30;;;3.33;;
21798;SDS011;24973;47.178;15.316;2023-05-10T03:07:59;10.07;;;4.13;;
21798;SDS011;24973;47.178;15.316;2023-05-10T03:10:54;7.00;;;4.00;;
21798;SDS011;24973;47.178;15.316;2023-05-10T03:13:48;5.77;;;4.00;;
21798;SDS011;24973;47.178;15.316;2023-05-10T03:16:46;7.53;;;4.03;;
21798;SDS011;24973;47.178;15.316;2023-05-10T03:19:40;6.43;;;4.10;;
21798;SDS011;24973;47.178;15.316;2023-05-10T03:22:34;5.27;;;4.37;;
21798;SDS011;24973;47.178;15.316;2023-05-10T03:25:25;4.60;;;4.13;;
21798;SDS011;24973;47.178;15.316;2023-05-10T03:28:15;5.30;;;4.10;;
21798;SDS011;24973;47.178;15.316;2023-05-10T03:31:05;5.00;;;4.17;;
21798;SDS011;24973;47.178;15.316;2023-05-10T03:33:55;5.40;;;4.57;;
21798;SDS011;24973;47.178;15.316;2023-05-10T03:36:44;6.17;;;4.50;;
21798;SDS011;24973;47.178;15.316;2023-05-10T03:39:33;5.87;;;4.60;;
21798;SDS011;24973;47.178;15.316;2023-05-10T03:42:22;6.80;;;4.60;;
21798;SDS011;24973;47.178;15.316;2023-05-10T03:45:11;5.73;;;4.07;;
21798;SDS011;24973;47.178;15.316;2023-05-10T03:48:00;6.30;;;4.33;;
21798;SDS011;24973;47.178;15.316;2023-05-10T03:50:51;4.57;;;4.17;;
21798;SDS011;24973;47.178;15.316;2023-05-10T03:53:40;4.40;;;3.90;;
21798;SDS011;24973;47.178;15.316;2023-05-10T03:56:29;4.67;;;4.17;;
21798;SDS011;24973;47.178;15.316;2023-05-10T03:59:19;4.97;;;3.97;;
21798;SDS011;24973;47.178;15.316;2023-05-10T04:02:08;4.60;;;3.23;;
21798;SDS011;24973;47.178;15.316;2023-05-10T04:04:57;4.57;;;3.37;;
21798;SDS011;24973;47.178;15.316;2023-05-10T04:07:47;6.83;;;4.33;;
21798;SDS011;24973;47.178;15.316;2023-05-10T04:10:37;13.53;;;4.80;;
21798;SDS011;24973;47.178;15.316;2023-05-10T04:13:26;5.27;;;4.70;;
21798;SDS011;24973;47.178;15.316;2023-05-10T04:16:15;9.63;;;5.20;;
21798;SDS011;24973;47.178;15.316;2023-05-10T04:19:04;5.53;;;5.03;;
21798;SDS011;24973;47.178;15.316;2023-05-10T04:21:53;6.17;;;4.60;;
21798;SDS011;24973;47.178;15.316;2023-05-10T04:24:43;4.77;;;4.10;;
21798;SDS011;24973;47.178;15.316;2023-05-10T04:27:32;10.67;;;5.00;;
21798;SDS011;24973;47.178;15.316;2023-05-10T04:30:21;5.37;;;4.83;;
21798;SDS011;24973;47.178;15.316;2023-05-10T04:33:10;7.63;;;4.87;;
21798;SDS011;24973;47.178;15.316;2023-05-10T04:36:01;6.23;;;5.60;;
21798;SDS011;24973;47.178;15.316;2023-05-10T04:38:50;9.27;;;4.90;;
21798;SDS011;24973;47.178;15.316;2023-05-10T04:41:41;4.67;;;3.80;;
21798;SDS011;24973;47.178;15.316;2023-05-10T04:44:29;5.93;;;5.33;;
21798;SDS011;24973;47.178;15.316;2023-05-10T04:47:18;7.63;;;4.43;;
21798;SDS011;24973;47.178;15.316;2023-05-10T04:50:07;5.40;;;4.63;;
21798;SDS011;24973;47.178;15.316;2023-05-10T04:52:57;10.40;;;5.23;;
21798;SDS011;24973;47.178;15.316;2023-05-10T04:55:46;5.70;;;5.10;;
21798;SDS011;24973;47.178;15.316;2023-05-10T04:58:36;5.20;;;4.57;;
21798;SDS011;24973;47.178;15.316;2023-05-10T05:01:26;5.30;;;4.47;;
21798;SDS011;24973;47.178;15.316;2023-05-10T05:04:14;6.27;;;4.43;;
21798;SDS011;24973;47.178;15.316;2023-05-10T05:07:03;4.70;;;4.23;;
21798;SDS011;24973;47.178;15.316;2023-05-10T05:09:52;5.00;;;4.47;;
21798;SDS011;24973;47.178;15.316;2023-05-10T05:12:41;6.20;;;4.13;;
21798;SDS011;24973;47.178;15.316;2023-05-10T05:15:32;7.63;;;4.17;;
21798;SDS011;24973;47.178;15.316;2023-05-10T05:18:21;5.50;;;3.50;;
21798;SDS011;24973;47.178;15.316;2023-05-10T05:21:13;5.90;;;4.17;;
21798;SDS011;24973;47.178;15.316;2023-05-10T05:24:03;4.47;;;4.07;;
21798;SDS011;24973;47.178;15.316;2023-05-10T05:26:53;4.13;;;3.73;;
21798;SDS011;24973;47.178;15.316;2023-05-10T05:29:42;4.67;;;4.27;;
21798;SDS011;24973;47.178;15.316;2023-05-10T05:32:32;5.43;;;4.87;;
21798;SDS011;24973;47.178;15.316;2023-05-10T05:35:21;4.93;;;4.50;;
21798;SDS011;24973;47.178;15.316;2023-05-10T05:38:10;6.77;;;4.33;;
21798;SDS011;24973;47.178;15.316;2023-05-10T05:40:59;6.17;;;4.83;;
21798;SDS011;24973;47.178;15.316;2023-05-10T05:43:49;5.47;;;4.27;;
21798;SDS011;24973;47.178;15.316;2023-05-10T05:46:38;5.07;;;4.30;;
21798;SDS011;24973;47.178;15.316;2023-05-10T05:49:28;5.20;;;4.20;;
21798;SDS011;24973;47.178;15.316;2023-05-10T05:52:17;5.13;;;4.13;;
21798;SDS011;24973;47.178;15.316;2023-05-10T05:55:07;4.13;;;3.60;;
21798;SDS011;24973;47.178;15.316;2023-05-10T05:57:56;4.37;;;3.60;;
21798;SDS011;24973;47.178;15.316;2023-05-10T06:00:45;4.93;;;4.00;;
21798;SDS011;24973;47.178;15.316;2023-05-10T06:03:34;7.07;;;4.37;;
21798;SDS011;24973;47.178;15.316;2023-05-10T06:06:25;5.17;;;3.87;;
21798;SDS011;24973;47.178;15.316;2023-05-10T06:09:14;3.80;;;3.23;;
21798;SDS011;24973;47.178;15.316;2023-05-10T06:12:03;5.50;;;3.47;;
21798;SDS011;24973;47.178;15.316;2023-05-10T06:14:52;4.53;;;3.20;;
21798;SDS011;24973;47.178;15.316;2023-05-10T06:17:41;4.63;;;3.40;;
21798;SDS011;24973;47.178;15.316;2023-05-10T06:20:30;6.83;;;3.33;;
21798;SDS011;24973;47.178;15.316;2023-05-10T06:23:21;3.83;;;3.53;;
21798;SDS011;24973;47.178;15.316;2023-05-10T06:26:12;4.87;;;3.97;;
21798;SDS011;24973;47.178;15.316;2023-05-10T06:29:01;4.60;;;4.03;;
21798;SDS011;24973;47.178;15.316;2023-05-10T06:31:50;6.90;;;3.97;;
21798;SDS011;24973;47.178;15.316;2023-05-10T06:34:39;10.00;;;4.40;;
21798;SDS011;24973;47.178;15.316;2023-05-10T06:37:29;8.43;;;3.77;;
21798;SDS011;24973;47.178;15.316;2023-05-10T06:40:20;6.10;;;4.83;;
21798;SDS011;24973;47.178;15.316;2023-05-10T06:43:09;4.83;;;4.17;;
21798;SDS011;24973;47.178;15.316;2023-05-10T06:45:58;4.73;;;4.20;;
21798;SDS011;24973;47.178;15.316;2023-05-10T06:48:47;8.30;;;4.00;;
21798;SDS011;24973;47.178;15.316;2023-05-10T06:51:36;6.07;;;3.90;;
21798;SDS011;24973;47.178;15.316;2023-05-10T06:54:25;5.50;;;4.33;;
21798;SDS011;24973;47.178;15.316;2023-05-10T06:57:15;4.90;;;4.40;;
21798;SDS011;24973;47.178;15.316;2023-05-10T07:00:16;4.50;;;3.53;;
21798;SDS011;24973;47.178;15.316;2023-05-10T07:03:06;8.67;;;4.17;;
21798;SDS011;24973;47.178;15.316;2023-05-10T07:05:59;5.47;;;4.50;;
21798;SDS011;24973;47.178;15.316;2023-05-10T07:08:50;8.03;;;4.17;;
21798;SDS011;24973;47.178;15.316;2023-05-10T07:11:39;4.60;;;3.73;;
21798;SDS011;24973;47.178;15.316;2023-05-10T07:14:29;6.17;;;4.13;;
21798;SDS011;24973;47.178;15.316;2023-05-10T07:17:18;5.07;;;3.40;;
21798;SDS011;24973;47.178;15.316;2023-05-10T07:20:08;5.13;;;4.40;;
21798;SDS011;24973;47.178;15.316;2023-05-10T07:22:57;4.43;;;3.90;;
21798;SDS011;24973;47.178;15.316;2023-05-10T07:25:46;4.83;;;3.73;;
21798;SDS011;24973;47.178;15.316;2023-05-10T07:28:36;6.30;;;4.33;;
21798;SDS011;24973;47.178;15.316;2023-05-10T07:31:27;7.90;;;3.87;;
21798;SDS011;24973;47.178;15.316;2023-05-10T07:34:15;3.97;;;3.57;;
21798;SDS011;24973;47.178;15.316;2023-05-10T07:37:04;5.37;;;4.63;;
21798;SDS011;24973;47.178;15.316;2023-05-10T07:39:53;4.93;;;4.33;;
21798;SDS011;24973;47.178;15.316;2023-05-10T07:42:43;8.27;;;3.83;;
21798;SDS011;24973;47.178;15.316;2023-05-10T07:45:32;7.27;;;3.90;;
21798;SDS011;24973;47.178;15.316;2023-05-10T07:48:23;5.73;;;3.50;;
21798;SDS011;24973;47.178;15.316;2023-05-10T07:51:12;8.43;;;3.57;;
21798;SDS011;24973;47.178;15.316;2023-05-10T07:54:01;4.37;;;3.93;;
21798;SDS011;24973;47.178;15.316;2023-05-10T07:56:50;7.27;;;3.73;;
21798;SDS011;24973;47.178;15.316;2023-05-10T07:59:39;7.87;;;4.53;;
21798;SDS011;24973;47.178;15.316;2023-05-10T08:02:28;7.67;;;4.33;;
21798;SDS011;24973;47.178;15.316;2023-05-10T08:05:19;4.20;;;3.40;;
21798;SDS011;24973;47.178;15.316;2023-05-10T08:08:07;6.30;;;4.53;;
21798;SDS011;24973;47.178;15.316;2023-05-10T08:10:56;8.70;;;3.90;;
21798;SDS011;24973;47.178;15.316;2023-05-10T08:13:46;6.77;;;4.23;;
21798;SDS011;24973;47.178;15.316;2023-05-10T08:16:36;4.73;;;3.60;;
21798;SDS011;24973;47.178;15.316;2023-05-10T08:19:25;5.90;;;4.20;;
21798;SDS011;24973;47.178;15.316;2023-05-10T08:22:15;5.40;;;4.27;;
21798;SDS011;24973;47.178;15.316;2023-05-10T08:25:04;5.77;;;3.53;;
21798;SDS011;24973;47.178;15.316;2023-05-10T08:27:55;4.33;;;3.33;;
21798;SDS011;24973;47.178;15.316;2023-05-10T08:30:44;4.93;;;2.80;;
21798;SDS011;24973;47.178;15.316;2023-05-10T08:33:33;4.40;;;3.63;;
21798;SDS011;24973;47.178;15.316;2023-05-10T08:36:21;3.70;;;2.90;;
21798;SDS011;24973;47.178;15.316;2023-05-10T08:39:12;3.23;;;2.83;;
21798;SDS011;24973;47.178;15.316;2023-05-10T08:42:05;3.67;;;2.93;;
21798;SDS011;24973;47.178;15.316;2023-05-10T08:44:54;3.00;;;2.70;;
21798;SDS011;24973;47.178;15.316;2023-05-10T08:47:45;5.27;;;3.20;;
21798;SDS011;24973;47.178;15.316;2023-05-10T08:50:35;5.77;;;2.90;;
21798;SDS011;24973;47.178;15.316;2023-05-10T08:53:25;4.30;;;3.23;;
21798;SDS011;24973;47.178;15.316;2023-05-10T08:56:16;6.90;;;4.43;;
21798;SDS011;24973;47.178;15.316;2023-05-10T08:59:06;4.43;;;2.93;;
21798;SDS011;24973;47.178;15.316;2023-05-10T09:01:56;3.90;;;3.07;;
21798;SDS011;24973;47.178;15.316;2023-05-10T09:04:46;5.47;;;3.47;;
21798;SDS011;24973;47.178;15.316;2023-05-10T09:07:35;3.80;;;3.40;;
21798;SDS011;24973;47.178;15.316;2023-05-10T09:10:25;7.87;;;3.17;;
21798;SDS011;24973;47.178;15.316;2023-05-10T09:13:16;3.67;;;3.10;;
21798;SDS011;24973;47.178;15.316;2023-05-10T09:16:06;5.30;;;3.65;;
21798;SDS011;24973;47.178;15.316;2023-05-10T09:18:59;7.00;;;3.80;;
21798;SDS011;24973;47.178;15.316;2023-05-10T09:21:48;3.80;;;3.40;;
21798;SDS011;24973;47.178;15.316;2023-05-10T09:24:37;4.73;;;3.40;;
21798;SDS011;24973;47.178;15.316;2023-05-10T09:27:31;4.40;;;3.37;;
21798;SDS011;24973;47.178;15.316;2023-05-10T09:30:24;4.70;;;4.07;;
21798;SDS011;24973;47.178;15.316;2023-05-10T09:33:14;4.63;;;3.30;;
21798;SDS011;24973;47.178;15.316;2023-05-10T09:36:06;4.00;;;3.60;;
21798;SDS011;24973;47.178;15.316;2023-05-10T09:38:56;4.23;;;3.53;;
21798;SDS011;24973;47.178;15.316;2023-05-10T09:41:46;5.00;;;3.27;;
21798;SDS011;24973;47.178;15.316;2023-05-10T09:44:35;3.70;;;2.90;;
21798;SDS011;24973;47.178;15.316;2023-05-10T09:47:26;4.17;;;3.00;;
21798;SDS011;24973;47.178;15.316;2023-05-10T09:50:15;3.73;;;2.90;;
21798;SDS011;24973;47.178;15.316;2023-05-10T09:53:04;3.90;;;2.97;;
21798;SDS011;24973;47.178;15.316;2023-05-10T09:55:54;5.37;;;3.70;;
21798;SDS011;24973;47.178;15.316;2023-05-10T09:58:43;5.50;;;3.23;;
21798;SDS011;24973;47.178;15.316;2023-05-10T10:01:32;3.40;;;2.63;;
21798;SDS011;24973;47.178;15.316;2023-05-10T10:04:23;4.43;;;2.90;;
21798;SDS011;24973;47.178;15.316;2023-05-10T10:07:12;4.57;;;2.87;;
21798;SDS011;24973;47.178;15.316;2023-05-10T10:10:01;3.63;;;2.23;;
21798;SDS011;24973;47.178;15.316;2023-05-10T10:12:51;4.50;;;1.90;;
21798;SDS011;24973;47.178;15.316;2023-05-10T10:15:40;2.10;;;1.80;;
21798;SDS011;24973;47.178;15.316;2023-05-10T10:18:30;2.80;;;2.23;;
21798;SDS011;24973;47.178;15.316;2023-05-10T10:21:21;3.53;;;1.70;;
21798;SDS011;24973;47.178;15.316;2023-05-10T10:24:10;3.30;;;2.43;;
21798;SDS011;24973;47.178;15.316;2023-05-10T10:27:01;2.23;;;2.03;;
21798;SDS011;24973;47.178;15.316;2023-05-10T10:29:59;2.80;;;2.33;;
21798;SDS011;24973;47.178;15.316;2023-05-10T10:33:01;3.57;;;2.30;;
21798;SDS011;24973;47.178;15.316;2023-05-10T10:36:13;4.37;;;2.93;;
21798;SDS011;24973;47.178;15.316;2023-05-10T10:39:07;4.27;;;2.33;;
21798;SDS011;24973;47.178;15.316;2023-05-10T10:41:57;4.20;;;2.47;;
21798;SDS011;24973;47.178;15.316;2023-05-10T10:44:49;2.77;;;2.27;;
21798;SDS011;24973;47.178;15.316;2023-05-10T10:47:38;3.23;;;2.13;;
21798;SDS011;24973;47.178;15.316;2023-05-10T10:50:27;2.37;;;2.17;;
21798;SDS011;24973;47.178;15.316;2023-05-10T10:53:16;2.87;;;2.10;;
21798;SDS011;24973;47.178;15.316;2023-05-10T10:56:07;3.43;;;2.20;;
21798;SDS011;24973;47.178;15.316;2023-05-10T10:58:58;3.23;;;2.47;;
21798;SDS011;24973;47.178;15.316;2023-05-10T11:01:51;3.07;;;2.03;;
21798;SDS011;24973;47.178;15.316;2023-05-10T11:04:43;2.50;;;2.20;;
21798;SDS011;24973;47.178;15.316;2023-05-10T11:07:33;7.83;;;3.47;;
21798;SDS011;24973;47.178;15.316;2023-05-10T11:10:22;3.67;;;3.37;;
21798;SDS011;24973;47.178;15.316;2023-05-10T11:13:13;7.10;;;4.33;;
21798;SDS011;24973;47.178;15.316;2023-05-10T11:16:15;4.53;;;3.23;;
21798;SDS011;24973;47.178;15.316;2023-05-10T11:19:06;6.47;;;3.53;;
21798;SDS011;24973;47.178;15.316;2023-05-10T11:22:11;5.67;;;2.67;;
21798;SDS011;24973;47.178;15.316;2023-05-10T11:25:01;3.80;;;2.50;;
21798;SDS011;24973;47.178;15.316;2023-05-10T11:27:50;5.20;;;2.40;;
21798;SDS011;24973;47.178;15.316;2023-05-10T11:30:41;3.20;;;2.90;;
21798;SDS011;24973;47.178;15.316;2023-05-10T11:33:31;2.40;;;2.20;;
21798;SDS011;24973;47.178;15.316;2023-05-10T11:36:32;3.47;;;3.13;;
21798;SDS011;24973;47.178;15.316;2023-05-10T11:39:25;3.13;;;2.83;;
21798;SDS011;24973;47.178;15.316;2023-05-10T11:42:15;3.83;;;2.67;;
21798;SDS011;24973;47.178;15.316;2023-05-10T11:45:04;4.23;;;2.70;;
21798;SDS011;24973;47.178;15.316;2023-05-10T11:47:56;4.03;;;3.10;;
21798;SDS011;24973;47.178;15.316;2023-05-10T11:50:45;4.27;;;2.73;;
21798;SDS011;24973;47.178;15.316;2023-05-10T11:53:34;5.00;;;3.00;;
21798;SDS011;24973;47.178;15.316;2023-05-10T11:56:24;3.57;;;2.73;;
21798;SDS011;24973;47.178;15.316;2023-05-10T11:59:13;5.17;;;3.50;;
21798;SDS011;24973;47.178;15.316;2023-05-10T12:02:02;2.63;;;2.43;;
21798;SDS011;24973;47.178;15.316;2023-05-10T12:04:53;4.27;;;2.43;;
21798;SDS011;24973;47.178;15.316;2023-05-10T12:07:43;4.03;;;3.30;;
21798;SDS011;24973;47.178;15.316;2023-05-10T12:10:34;4.30;;;3.43;;
21798;SDS011;24973;47.178;15.316;2023-05-10T12:13:23;8.27;;;2.70;;
21798;SDS011;24973;47.178;15.316;2023-05-10T12:16:12;5.30;;;3.30;;
21798;SDS011;24973;47.178;15.316;2023-05-10T12:19:02;3.80;;;3.07;;
21798;SDS011;24973;47.178;15.316;2023-05-10T12:21:53;3.47;;;2.83;;
21798;SDS011;24973;47.178;15.316;2023-05-10T12:24:42;3.63;;;2.60;;
21798;SDS011;24973;47.178;15.316;2023-05-10T12:27:34;10.23;;;4.90;;
21798;SDS011;24973;47.178;15.316;2023-05-10T12:30:23;4.90;;;4.43;;
21798;SDS011;24973;47.178;15.316;2023-05-10T12:33:13;5.80;;;4.33;;
21798;SDS011;24973;47.178;15.316;2023-05-10T12:36:03;4.23;;;3.87;;
21798;SDS011;24973;47.178;15.316;2023-05-10T12:38:59;6.97;;;4.77;;
21798;SDS011;24973;47.178;15.316;2023-05-10T12:41:51;4.53;;;3.73;;
21798;SDS011;24973;47.178;15.316;2023-05-10T12:44:40;4.97;;;4.27;;
21798;SDS011;24973;47.178;15.316;2023-05-10T12:47:29;7.83;;;4.13;;
21798;SDS011;24973;47.178;15.316;2023-05-10T12:50:18;8.50;;;5.07;;
21798;SDS011;24973;47.178;15.316;2023-05-10T12:53:07;6.20;;;4.87;;
21798;SDS011;24973;47.178;15.316;2023-05-10T12:55:57;9.90;;;5.60;;
21798;SDS011;24973;47.178;15.316;2023-05-10T12:58:46;5.37;;;4.53;;
21798;SDS011;24973;47.178;15.316;2023-05-10T13:01:35;9.50;;;5.47;;
21798;SDS011;24973;47.178;15.316;2023-05-10T13:04:25;4.67;;;4.27;;
21798;SDS011;24973;47.178;15.316;2023-05-10T13:07:13;6.80;;;5.10;;
21798;SDS011;24973;47.178;15.316;2023-05-10T13:10:03;6.97;;;4.47;;
21798;SDS011;24973;47.178;15.316;2023-05-10T13:12:54;7.13;;;4.93;;
21798;SDS011;24973;47.178;15.316;2023-05-10T13:15:43;5.30;;;4.40;;
21798;SDS011;24973;47.178;15.316;2023-05-10T13:18:32;10.63;;;4.50;;
21798;SDS011;24973;47.178;15.316;2023-05-10T13:21:21;6.53;;;5.43;;
21798;SDS011;24973;47.178;15.316;2023-05-10T13:24:11;7.93;;;5.40;;
21798;SDS011;24973;47.178;15.316;2023-05-10T13:27:00;5.60;;;4.37;;
21798;SDS011;24973;47.178;15.316;2023-05-10T13:29:51;5.23;;;4.50;;
21798;SDS011;24973;47.178;15.316;2023-05-10T13:32:41;6.20;;;5.03;;
21798;SDS011;24973;47.178;15.316;2023-05-10T13:35:30;4.87;;;4.23;;
21798;SDS011;24973;47.178;15.316;2023-05-10T13:38:19;4.93;;;4.53;;
21798;SDS011;24973;47.178;15.316;2023-05-10T13:41:08;7.20;;;4.67;;
21798;SDS011;24973;47.178;15.316;2023-05-10T13:43:57;5.60;;;4.50;;
21798;SDS011;24973;47.178;15.316;2023-05-10T13:46:48;5.57;;;4.50;;
21798;SDS011;24973;47.178;15.316;2023-05-10T13:49:36;5.97;;;5.37;;
21798;SDS011;24973;47.178;15.316;2023-05-10T13:52:25;7.63;;;5.00;;
21798;SDS011;24973;47.178;15.316;2023-05-10T13:55:14;5.80;;;4.87;;
21798;SDS011;24973;47.178;15.316;2023-05-10T13:58:04;7.57;;;4.90;;
21798;SDS011;24973;47.178;15.316;2023-05-10T14:00:53;4.57;;;4.17;;
21798;SDS011;24973;47.178;15.316;2023-05-10T14:03:43;6.40;;;4.53;;
21798;SDS011;24973;47.178;15.316;2023-05-10T14:06:32;7.40;;;4.93;;
21798;SDS011;24973;47.178;15.316;2023-05-10T14:09:21;5.80;;;4.20;;
21798;SDS011;24973;47.178;15.316;2023-05-10T14:12:10;4.53;;;4.13;;
21798;SDS011;24973;47.178;15.316;2023-05-10T14:15:01;5.20;;;4.70;;
21798;SDS011;24973;47.178;15.316;2023-05-10T14:17:52;4.70;;;3.80;;
21798;SDS011;24973;47.178;15.316;2023-05-10T14:20:42;4.77;;;4.30;;
21798;SDS011;24973;47.178;15.316;2023-05-10T14:23:31;4.87;;;4.43;;
21798;SDS011;24973;47.178;15.316;2023-05-10T14:26:20;5.53;;;4.00;;
21798;SDS011;24973;47.178;15.316;2023-05-10T14:29:09;5.50;;;4.13;;
21798;SDS011;24973;47.178;15.316;2023-05-10T14:31:58;5.43;;;4.33;;
21798;SDS011;24973;47.178;15.316;2023-05-10T14:34:47;4.60;;;4.10;;
21798;SDS011;24973;47.178;15.316;2023-05-10T14:37:38;6.20;;;4.73;;
21798;SDS011;24973;47.178;15.316;2023-05-10T14:40:27;6.93;;;5.23;;
21798;SDS011;24973;47.178;15.316;2023-05-10T14:43:16;8.07;;;4.93;;
21798;SDS011;24973;47.178;15.316;2023-05-10T14:46:04;4.93;;;4.43;;
21798;SDS011;24973;47.178;15.316;2023-05-10T14:48:53;6.47;;;4.30;;
21798;SDS011;24973;47.178;15.316;2023-05-10T14:51:42;5.03;;;4.53;;
21798;SDS011;24973;47.178;15.316;2023-05-10T14:54:33;4.73;;;3.80;;
21798;SDS011;24973;47.178;15.316;2023-05-10T14:57:22;4.43;;;3.83;;
21798;SDS011;24973;47.178;15.316;2023-05-10T15:00:12;4.70;;;4.30;;
21798;SDS011;24973;47.178;15.316;2023-05-10T15:03:03;6.37;;;4.73;;
21798;SDS011;24973;47.178;15.316;2023-05-10T15:05:52;5.70;;;4.30;;
21798;SDS011;24973;47.178;15.316;2023-05-10T15:08:42;4.93;;;4.43;;
21798;SDS011;24973;47.178;15.316;2023-05-10T15:11:32;4.77;;;4.27;;
21798;SDS011;24973;47.178;15.316;2023-05-10T15:14:21;4.37;;;3.97;;
21798;SDS011;24973;47.178;15.316;2023-05-10T15:17:10;4.53;;;4.13;;
21798;SDS011;24973;47.178;15.316;2023-05-10T15:19:59;4.77;;;4.27;;
21798;SDS011;24973;47.178;15.316;2023-05-10T15:22:49;5.53;;;4.30;;
21798;SDS011;24973;47.178;15.316;2023-05-10T15:25:38;4.93;;;3.70;;
21798;SDS011;24973;47.178;15.316;2023-05-10T15:28:29;7.17;;;4.53;;
21798;SDS011;24973;47.178;15.316;2023-05-10T15:31:18;3.77;;;3.47;;
21798;SDS011;24973;47.178;15.316;2023-05-10T15:34:07;7.70;;;4.03;;
21798;SDS011;24973;47.178;15.316;2023-05-10T15:36:56;3.70;;;3.40;;
21798;SDS011;24973;47.178;15.316;2023-05-10T15:39:45;6.47;;;4.17;;
21798;SDS011;24973;47.178;15.316;2023-05-10T15:42:34;4.10;;;3.70;;
21798;SDS011;24973;47.178;15.316;2023-05-10T15:45:24;5.47;;;4.97;;
21798;SDS011;24973;47.178;15.316;2023-05-10T15:48:13;4.93;;;3.70;;
21798;SDS011;24973;47.178;15.316;2023-05-10T15:51:02;5.10;;;4.23;;
21798;SDS011;24973;47.178;15.316;2023-05-10T15:53:52;4.77;;;3.93;;
21798;SDS011;24973;47.178;15.316;2023-05-10T15:56:51;7.67;;;3.57;;
21798;SDS011;24973;47.178;15.316;2023-05-10T15:59:40;4.20;;;3.73;;
21798;SDS011;24973;47.178;15.316;2023-05-10T16:02:31;3.97;;;3.67;;
21798;SDS011;24973;47.178;15.316;2023-05-10T16:05:20;6.63;;;3.73;;
21798;SDS011;24973;47.178;15.316;2023-05-10T16:08:09;5.47;;;3.97;;
21798;SDS011;24973;47.178;15.316;2023-05-10T16:10:58;4.67;;;3.83;;
21798;SDS011;24973;47.178;15.316;2023-05-10T16:13:48;4.10;;;3.73;;
21798;SDS011;24973;47.178;15.316;2023-05-10T16:16:37;5.30;;;4.40;;
21798;SDS011;24973;47.178;15.316;2023-05-10T16:19:28;5.57;;;4.03;;
21798;SDS011;24973;47.178;15.316;2023-05-10T16:22:17;8.70;;;4.87;;
21798;SDS011;24973;47.178;15.316;2023-05-10T16:25:08;6.30;;;3.80;;
21798;SDS011;24973;47.178;15.316;2023-05-10T16:27:59;4.87;;;4.30;;
21798;SDS011;24973;47.178;15.316;2023-05-10T16:30:48;8.10;;;4.50;;
21798;SDS011;24973;47.178;15.316;2023-05-10T16:33:37;3.80;;;3.50;;
21798;SDS011;24973;47.178;15.316;2023-05-10T16:36:27;6.83;;;4.10;;
21798;SDS011;24973;47.178;15.316;2023-05-10T16:39:16;5.00;;;3.97;;
21798;SDS011;24973;47.178;15.316;2023-05-10T16:42:05;4.30;;;3.90;;
21798;SDS011;24973;47.178;15.316;2023-05-10T16:44:54;6.50;;;4.23;;
21798;SDS011;24973;47.178;15.316;2023-05-10T16:47:43;5.00;;;4.30;;
21798;SDS011;24973;47.178;15.316;2023-05-10T16:50:32;4.03;;;3.50;;
21798;SDS011;24973;47.178;15.316;2023-05-10T16:53:23;3.37;;;3.10;;